Time;durP1;ratioP1;P1;durP2;ratioP2;P2;SDS_P1;SDS_P2;PMS_P1;PMS_P2;Temp;Humidity;BMP_temperature;BMP_pressure;BME280_temperature;BME280_humidity;BME280_pressure;Samples;Min_cycle;Max_cycle;Signal;HPM_P1;HPM_P2
2022/04/30 00:02:10;;;;;;;8.47;5.07;;;10.50;99.90;;;;;;5114083;28;20158;-69
2022/04/30 00:04:39;;;;;;;9.43;5.50;;;10.60;99.90;;;;;;5113475;28;20209;-68
2022/04/30 00:07:05;;;;;;;9.07;5.73;;;10.50;99.90;;;;;;5114191;28;20258;-68
2022/04/30 00:09:31;;;;;;;7.70;5.03;;;10.40;99.90;;;;;;5114397;28;20177;-68
2022/04/30 00:11:58;;;;;;;7.20;4.83;;;10.40;99.90;;;;;;5113529;28;20200;-68
2022/04/30 00:14:24;;;;;;;11.27;5.33;;;10.40;99.90;;;;;;5114689;28;20716;-68
2022/04/30 00:16:50;;;;;;;8.93;5.40;;;10.40;99.90;;;;;;5118419;28;20215;-68
2022/04/30 00:19:15;;;;;;;8.53;5.67;;;10.30;99.90;;;;;;5118293;28;20172;-67
2022/04/30 00:21:41;;;;;;;8.13;5.23;;;10.30;99.90;;;;;;5118377;28;20166;-67
2022/04/30 00:24:07;;;;;;;9.50;5.53;;;10.20;99.90;;;;;;5116708;28;20170;-68
2022/04/30 00:26:33;;;;;;;10.37;5.37;;;10.30;99.90;;;;;;5117943;28;20652;-68
2022/04/30 00:29:00;;;;;;;6.93;4.80;;;10.00;99.90;;;;;;5117749;28;20197;-67
2022/04/30 00:31:26;;;;;;;9.10;5.67;;;10.10;99.90;;;;;;5117697;28;20155;-68
2022/04/30 00:33:52;;;;;;;8.43;5.13;;;10.10;99.90;;;;;;5117276;28;20166;-69
2022/04/30 00:36:18;;;;;;;9.70;5.80;;;10.10;99.90;;;;;;5116612;28;20181;-68
2022/04/30 00:38:43;;;;;;;5.67;4.90;;;10.20;99.90;;;;;;5117256;28;20512;-67
2022/04/30 00:41:10;;;;;;;6.23;4.73;;;10.00;99.90;;;;;;5117142;28;20163;-67
2022/04/30 00:43:45;;;;;;;7.13;5.37;;;10.00;99.90;;;;;;5117564;28;20158;-67
2022/04/30 00:46:15;;;;;;;11.33;5.50;;;10.00;99.90;;;;;;5117135;28;20154;-68
2022/04/30 00:48:42;;;;;;;7.33;5.40;;;10.00;99.90;;;;;;5117281;28;20640;-68
2022/04/30 00:51:19;;;;;;;9.17;5.83;;;9.90;99.90;;;;;;5116812;28;20676;-66
2022/04/30 00:53:50;;;;;;;8.63;5.77;;;10.00;99.90;;;;;;5116967;28;20312;-66
2022/04/30 00:56:22;;;;;;;9.33;5.83;;;10.00;99.90;;;;;;5117074;27;20476;-68
2022/04/30 00:58:49;;;;;;;7.93;5.00;;;9.80;99.90;;;;;;5117203;28;20165;-67
2022/04/30 01:01:15;;;;;;;9.07;5.43;;;9.90;99.90;;;;;;5117045;28;20170;-68
2022/04/30 01:03:41;;;;;;;6.80;5.57;;;9.80;99.90;;;;;;5117074;28;20167;-68
2022/04/30 01:06:09;;;;;;;9.70;5.40;;;9.70;99.90;;;;;;5117271;28;20197;-69
2022/04/30 01:08:36;;;;;;;8.30;5.73;;;9.80;99.90;;;;;;5116672;28;20244;-66
2022/04/30 01:11:04;;;;;;;8.43;5.37;;;9.80;99.90;;;;;;5117132;28;20575;-68
2022/04/30 01:13:34;;;;;;;7.33;5.37;;;9.70;99.90;;;;;;5115931;28;20543;-66
2022/04/30 01:16:05;;;;;;;6.90;5.43;;;9.50;99.90;;;;;;5116905;28;20154;-69
2022/04/30 01:18:34;;;;;;;8.97;5.93;;;9.50;99.90;;;;;;5117188;28;20180;-69
2022/04/30 01:21:05;;;;;;;8.20;5.67;;;9.40;99.90;;;;;;5116337;28;20169;-67
2022/04/30 01:23:32;;;;;;;8.37;5.70;;;9.40;99.90;;;;;;5117213;28;20155;-69
2022/04/30 01:26:01;;;;;;;8.37;4.93;;;9.40;99.90;;;;;;5117311;28;20278;-69
2022/04/30 01:28:28;;;;;;;7.40;5.33;;;9.40;99.90;;;;;;5116570;28;20489;-66
2022/04/30 01:30:54;;;;;;;7.30;5.47;;;9.40;99.90;;;;;;5116406;28;20503;-69
2022/04/30 01:38:48;;;;;;;5.57;4.30;;;9.60;99.90;;;;;;5123011;28;20161;-68
2022/04/30 01:41:13;;;;;;;6.23;5.10;;;9.70;99.90;;;;;;5121294;28;20171;-67
2022/04/30 01:43:39;;;;;;;7.77;4.73;;;9.50;99.90;;;;;;5119570;28;20172;-69
2022/04/30 01:46:05;;;;;;;7.00;5.13;;;9.40;99.90;;;;;;5115839;28;20174;-67
2022/04/30 01:48:32;;;;;;;10.40;5.03;;;9.40;99.90;;;;;;5117035;28;20211;-66
2022/04/30 01:51:00;;;;;;;6.93;4.40;;;9.40;99.90;;;;;;5117602;28;20148;-70
2022/04/30 01:53:25;;;;;;;8.10;4.83;;;9.50;99.90;;;;;;5127327;28;20229;-68
2022/04/30 01:55:51;;;;;;;6.53;5.10;;;9.40;99.90;;;;;;5127828;28;20192;-68
2022/04/30 01:58:17;;;;;;;7.03;4.90;;;9.30;99.90;;;;;;5121102;28;20245;-67
2022/04/30 02:00:43;;;;;;;6.27;5.37;;;9.30;99.90;;;;;;5115847;28;20237;-68
2022/04/30 02:03:12;;;;;;;7.57;4.80;;;9.40;99.90;;;;;;5115606;28;20211;-66
2022/04/30 02:05:40;;;;;;;7.53;4.83;;;9.30;99.90;;;;;;5116230;28;20203;-67
2022/04/30 02:08:07;;;;;;;10.80;5.00;;;9.40;99.90;;;;;;5115803;28;20617;-67
2022/04/30 02:10:38;;;;;;;8.37;4.83;;;9.40;99.90;;;;;;5115381;28;20165;-67
2022/04/30 02:13:09;;;;;;;8.10;5.27;;;9.30;99.90;;;;;;5115515;28;20197;-65
2022/04/30 02:15:39;;;;;;;6.63;4.93;;;9.40;99.90;;;;;;5115423;28;20166;-66
2022/04/30 02:18:06;;;;;;;7.30;5.33;;;9.30;99.90;;;;;;5115637;28;20158;-67
2022/04/30 02:20:34;;;;;;;6.87;5.33;;;9.30;99.90;;;;;;5114854;28;20203;-67
2022/04/30 02:23:09;;;;;;;7.97;5.33;;;9.30;99.90;;;;;;5115794;28;20162;-68
2022/04/30 02:25:36;;;;;;;6.07;4.50;;;9.20;99.90;;;;;;5115819;28;20200;-67
2022/04/30 02:28:04;;;;;;;6.87;4.90;;;9.20;99.90;;;;;;5115268;28;20169;-67
2022/04/30 02:30:32;;;;;;;8.80;4.63;;;9.20;99.90;;;;;;5114791;27;20166;-67
2022/04/30 02:33:03;;;;;;;9.57;5.17;;;9.10;99.90;;;;;;5115019;28;20227;-67
2022/04/30 02:35:33;;;;;;;7.37;4.87;;;9.20;99.90;;;;;;5115174;28;20719;-66
2022/04/30 02:38:00;;;;;;;6.43;4.53;;;9.00;99.90;;;;;;5114780;28;20185;-66
2022/04/30 02:40:29;;;;;;;9.33;5.40;;;9.00;99.90;;;;;;5113464;28;20177;-66
2022/04/30 02:43:00;;;;;;;9.30;4.97;;;9.00;99.90;;;;;;5115107;28;20500;-67
2022/04/30 02:45:26;;;;;;;8.90;4.90;;;9.00;99.90;;;;;;5114975;28;20176;-67
2022/04/30 02:47:56;;;;;;;9.10;5.37;;;8.90;99.90;;;;;;5114613;28;20162;-66
2022/04/30 02:50:23;;;;;;;8.13;5.13;;;8.90;99.90;;;;;;5115031;28;20151;-67
2022/04/30 02:52:49;;;;;;;7.03;5.07;;;8.70;99.90;;;;;;5114748;28;20236;-67
2022/04/30 02:55:15;;;;;;;11.17;5.40;;;8.90;99.90;;;;;;5114995;28;20582;-67
2022/04/30 02:59:53;;;;;;;9.17;4.80;;;8.90;99.90;;;;;;5113114;28;20174;-69
2022/04/30 03:00:32;;;;;;;6.97;5.23;;;9.00;99.90;;;;;;5116028;28;20174;-68
2022/04/30 03:02:58;;;;;;;8.87;5.50;;;8.90;99.90;;;;;;5115272;28;20503;-68
2022/04/30 03:05:24;;;;;;;8.67;5.70;;;8.90;99.90;;;;;;5117413;28;20170;-68
2022/04/30 03:07:50;;;;;;;7.60;5.07;;;8.90;99.90;;;;;;5120599;28;20220;-68
2022/04/30 03:10:16;;;;;;;7.17;4.53;;;8.90;99.90;;;;;;5121241;28;20651;-67
2022/04/30 03:12:42;;;;;;;8.50;5.30;;;9.00;99.90;;;;;;5122590;28;20201;-67
2022/04/30 03:15:08;;;;;;;6.73;4.90;;;9.10;99.90;;;;;;5119672;27;20589;-68
2022/04/30 03:23:03;;;;;;;6.47;4.97;;;8.90;99.90;;;;;;5116164;28;20529;-66
2022/04/30 03:25:29;;;;;;;8.13;4.43;;;8.90;99.90;;;;;;5115690;28;20158;-67
2022/04/30 03:27:55;;;;;;;8.67;5.30;;;8.80;99.90;;;;;;5120365;28;20164;-68
2022/04/30 03:30:22;;;;;;;6.87;5.03;;;8.60;99.90;;;;;;5118406;28;20277;-68
2022/04/30 03:32:49;;;;;;;5.90;4.47;;;8.60;99.90;;;;;;5114506;28;20189;-66
2022/04/30 03:35:14;;;;;;;9.53;5.03;;;8.60;99.90;;;;;;5115270;28;20167;-67
2022/04/30 03:37:40;;;;;;;14.17;5.20;;;8.70;99.90;;;;;;5114269;28;20612;-68
2022/04/30 03:40:06;;;;;;;7.80;5.07;;;8.70;99.90;;;;;;5113986;28;20162;-67
2022/04/30 03:42:33;;;;;;;7.33;4.43;;;8.60;99.90;;;;;;5114129;28;20177;-68
2022/04/30 03:45:03;;;;;;;7.90;5.07;;;8.50;99.90;;;;;;5113905;28;20156;-69
2022/04/30 03:47:28;;;;;;;7.40;5.07;;;8.60;99.90;;;;;;5113982;28;20501;-67
2022/04/30 03:49:54;;;;;;;8.23;5.33;;;8.60;99.90;;;;;;5114470;28;20167;-66
2022/04/30 03:52:19;;;;;;;8.57;5.53;;;8.50;99.90;;;;;;5114609;28;20680;-66
2022/04/30 03:54:45;;;;;;;9.07;5.10;;;8.50;99.90;;;;;;5114524;28;20249;-68
2022/04/30 03:57:10;;;;;;;6.30;4.87;;;8.60;99.90;;;;;;5113819;28;20166;-68
2022/04/30 03:59:36;;;;;;;7.37;4.97;;;8.60;99.90;;;;;;5114116;28;20178;-68
2022/04/30 04:02:03;;;;;;;6.97;5.23;;;8.60;99.90;;;;;;5112979;28;20189;-67
2022/04/30 04:04:29;;;;;;;9.20;5.47;;;8.60;99.90;;;;;;5114462;28;20170;-66
2022/04/30 04:06:56;;;;;;;6.83;4.53;;;8.60;99.90;;;;;;5115025;28;20178;-67
2022/04/30 04:09:22;;;;;;;6.30;4.60;;;8.50;99.90;;;;;;5114624;28;20665;-66
2022/04/30 04:11:48;;;;;;;9.50;5.33;;;8.70;99.90;;;;;;5113194;28;20278;-68
2022/04/30 04:17:40;;;;;;;6.37;4.87;;;8.60;99.90;;;;;;5113892;28;20166;-68
2022/04/30 04:19:46;;;;;;;7.30;4.73;;;8.70;99.90;;;;;;5108200;28;20621;-68
2022/04/30 04:22:12;;;;;;;5.33;4.33;;;8.70;99.90;;;;;;5114399;28;20195;-66
2022/04/30 04:27:21;;;;;;;10.17;5.17;;;8.90;99.90;;;;;;5123382;28;20158;-67
2022/04/30 04:29:47;;;;;;;5.73;4.50;;;9.00;99.90;;;;;;5115250;28;20165;-67
2022/04/30 04:32:13;;;;;;;6.80;5.30;;;8.90;99.90;;;;;;5115030;28;20235;-67
2022/04/30 04:34:38;;;;;;;7.70;4.80;;;8.90;99.90;;;;;;5109174;28;20173;-68
2022/04/30 04:37:04;;;;;;;7.87;4.80;;;8.90;99.90;;;;;;5094556;28;20246;-69
2022/04/30 04:39:30;;;;;;;5.23;4.40;;;8.80;99.90;;;;;;5091453;28;20197;-67
2022/04/30 04:41:56;;;;;;;7.00;4.90;;;8.80;99.90;;;;;;5096375;28;20191;-67
2022/04/30 04:44:21;;;;;;;5.90;4.57;;;8.80;99.90;;;;;;5094356;28;20174;-68
2022/04/30 04:46:47;;;;;;;7.00;5.17;;;8.80;99.90;;;;;;5093111;28;20166;-67
2022/04/30 04:49:14;;;;;;;8.77;5.17;;;8.90;99.90;;;;;;5093545;28;20506;-68
2022/04/30 04:51:39;;;;;;;7.10;5.10;;;9.00;99.90;;;;;;5096754;28;20170;-67
2022/04/30 04:54:05;;;;;;;13.43;5.20;;;8.80;99.90;;;;;;5103989;28;20183;-67
2022/04/30 04:56:31;;;;;;;8.80;5.03;;;8.80;99.90;;;;;;5093613;28;20271;-67
2022/04/30 04:58:57;;;;;;;7.63;5.23;;;8.90;99.90;;;;;;5093080;28;20197;-67
2022/04/30 05:01:22;;;;;;;5.93;4.33;;;9.00;99.90;;;;;;5096946;28;20217;-67
2022/04/30 05:03:48;;;;;;;6.83;4.63;;;9.00;99.90;;;;;;5096415;28;20633;-68
2022/04/30 05:06:14;;;;;;;11.17;5.17;;;8.90;99.90;;;;;;5095890;28;20178;-68
2022/04/30 05:08:40;;;;;;;7.33;5.10;;;9.10;99.90;;;;;;5098452;28;20648;-67
2022/04/30 05:11:06;;;;;;;6.60;4.47;;;8.90;99.90;;;;;;5097622;28;20167;-68
2022/04/30 05:13:31;;;;;;;5.80;4.67;;;9.10;99.90;;;;;;5096300;28;20186;-66
2022/04/30 05:15:57;;;;;;;7.23;4.97;;;9.10;99.90;;;;;;5096105;28;20276;-67
2022/04/30 05:18:22;;;;;;;7.33;5.67;;;9.20;99.90;;;;;;5096281;28;20601;-67
2022/04/30 05:20:48;;;;;;;6.97;4.80;;;9.40;99.90;;;;;;5096152;28;20163;-66
2022/04/30 05:23:14;;;;;;;7.93;5.20;;;9.30;99.90;;;;;;5095554;28;20182;-70
2022/04/30 05:25:40;;;;;;;6.67;4.57;;;9.30;99.90;;;;;;5096239;28;20167;-68
2022/04/30 05:28:07;;;;;;;7.57;5.20;;;9.20;99.90;;;;;;5095874;28;20193;-67
2022/04/30 05:30:33;;;;;;;12.43;4.93;;;9.30;99.90;;;;;;5096254;28;20250;-68
2022/04/30 05:32:59;;;;;;;7.67;5.30;;;9.40;99.90;;;;;;5096166;28;20278;-68
2022/04/30 05:35:25;;;;;;;9.93;4.70;;;9.40;99.90;;;;;;5095721;28;20163;-67
2022/04/30 05:37:51;;;;;;;7.23;5.27;;;9.40;99.90;;;;;;5096135;28;20171;-67
2022/04/30 05:40:18;;;;;;;7.70;5.27;;;9.60;99.90;;;;;;5096199;28;20162;-68
2022/04/30 05:42:44;;;;;;;6.83;5.13;;;9.60;99.90;;;;;;5095285;28;20158;-67
2022/04/30 05:45:09;;;;;;;7.23;4.70;;;9.80;99.90;;;;;;5096078;28;20174;-67
2022/04/30 05:47:36;;;;;;;10.67;5.70;;;9.80;99.90;;;;;;5095768;28;20167;-69
2022/04/30 05:50:05;;;;;;;7.37;5.03;;;9.80;99.90;;;;;;5095583;28;20155;-67
2022/04/30 05:52:33;;;;;;;7.90;5.07;;;9.80;99.90;;;;;;5094369;28;20454;-68
2022/04/30 05:55:01;;;;;;;10.83;4.97;;;9.70;99.90;;;;;;5095889;28;20175;-67
2022/04/30 05:57:27;;;;;;;8.33;5.73;;;9.80;99.90;;;;;;5095571;28;20163;-68
2022/04/30 05:59:53;;;;;;;7.47;5.07;;;9.70;99.90;;;;;;5095419;28;20163;-66
2022/04/30 06:02:19;;;;;;;9.73;5.27;;;9.80;99.90;;;;;;5095221;28;20171;-69
2022/04/30 06:04:46;;;;;;;5.77;5.07;;;9.90;99.90;;;;;;5095639;28;20170;-68
2022/04/30 06:07:12;;;;;;;11.97;4.87;;;10.00;99.90;;;;;;5095458;28;20262;-68
2022/04/30 06:09:38;;;;;;;11.37;5.47;;;10.10;99.90;;;;;;5095818;28;20242;-69
2022/04/30 06:12:05;;;;;;;6.20;4.90;;;10.10;99.90;;;;;;5095298;28;20282;-67
2022/04/30 06:14:30;;;;;;;6.77;5.30;;;10.00;99.90;;;;;;5095114;28;20564;-68
2022/04/30 06:16:57;;;;;;;7.40;5.10;;;10.20;99.90;;;;;;5094790;28;20194;-69
2022/04/30 06:19:23;;;;;;;6.10;4.67;;;10.10;99.90;;;;;;5095347;28;20191;-67
2022/04/30 06:21:49;;;;;;;8.77;5.40;;;10.40;99.90;;;;;;5096083;28;20159;-66
2022/04/30 06:24:15;;;;;;;9.47;4.83;;;10.40;99.90;;;;;;5095385;28;20151;-68
2022/04/30 06:26:41;;;;;;;10.27;4.93;;;10.50;99.90;;;;;;5095114;28;20163;-67
2022/04/30 06:29:07;;;;;;;6.40;5.17;;;10.50;99.90;;;;;;5095056;28;20186;-68
2022/04/30 06:31:33;;;;;;;7.77;5.07;;;10.60;99.90;;;;;;5094522;28;20162;-67
2022/04/30 06:33:58;;;;;;;7.90;4.87;;;10.60;99.90;;;;;;5094140;28;20515;-67
2022/04/30 06:36:24;;;;;;;8.23;5.17;;;10.50;99.90;;;;;;5095333;28;20253;-68
2022/04/30 06:38:50;;;;;;;7.20;4.73;;;10.60;99.90;;;;;;5094222;28;20227;-66
2022/04/30 06:41:17;;;;;;;7.63;5.03;;;10.90;99.90;;;;;;5094856;28;20647;-67
2022/04/30 06:43:42;;;;;;;9.77;5.10;;;10.80;99.90;;;;;;5094827;28;20197;-69
2022/04/30 06:46:08;;;;;;;7.97;4.87;;;11.00;99.90;;;;;;5093293;28;20203;-67
2022/04/30 06:48:34;;;;;;;8.03;4.73;;;11.10;99.90;;;;;;5094145;28;20190;-66
2022/04/30 06:51:00;;;;;;;7.60;5.57;;;11.30;99.90;;;;;;5093070;28;20339;-67
2022/04/30 06:58:55;;;;;;;7.97;5.73;;;11.50;99.90;;;;;;5094322;28;20155;-68
2022/04/30 07:01:28;;;;;;;6.87;5.20;;;11.70;99.90;;;;;;5094688;28;20250;-70
2022/04/30 07:04:01;;;;;;;8.37;5.40;;;11.90;99.90;;;;;;5095066;28;20162;-66
2022/04/30 07:06:30;;;;;;;8.07;5.20;;;12.10;99.90;;;;;;5094846;28;20162;-68
2022/04/30 07:08:56;;;;;;;9.20;5.13;;;12.20;99.90;;;;;;5093231;28;20677;-67
2022/04/30 07:11:22;;;;;;;8.47;5.10;;;12.30;99.90;;;;;;5094330;28;20296;-68
2022/04/30 07:13:48;;;;;;;7.77;5.33;;;12.20;99.90;;;;;;5093972;28;20533;-65
2022/04/30 07:16:13;;;;;;;8.23;5.40;;;12.30;99.90;;;;;;5094759;28;20158;-68
2022/04/30 07:18:39;;;;;;;7.33;5.40;;;12.40;99.90;;;;;;5094280;28;20159;-68
2022/04/30 07:21:05;;;;;;;7.67;5.00;;;12.70;99.90;;;;;;5094350;28;20171;-68
2022/04/30 07:23:31;;;;;;;8.43;5.20;;;12.70;99.90;;;;;;5093135;28;20170;-68
2022/04/30 07:25:56;;;;;;;12.83;5.23;;;12.80;99.90;;;;;;5093979;28;20155;-68
2022/04/30 07:28:26;;;;;;;8.93;5.23;;;12.90;99.90;;;;;;5094228;28;20228;-67
2022/04/30 07:30:52;;;;;;;7.77;5.10;;;12.80;99.90;;;;;;5096992;28;20238;-69
2022/04/30 07:33:18;;;;;;;7.57;4.70;;;12.90;99.90;;;;;;5098825;28;20237;-68
2022/04/30 07:35:44;;;;;;;7.00;4.80;;;13.00;99.90;;;;;;5099384;28;20619;-68
2022/04/30 07:38:09;;;;;;;7.43;4.63;;;12.90;99.90;;;;;;5098545;28;20174;-69
2022/04/30 07:40:35;;;;;;;5.87;4.30;;;13.10;99.90;;;;;;5095196;28;20173;-68
2022/04/30 07:43:04;;;;;;;6.33;4.60;;;13.20;99.90;;;;;;5094464;28;20249;-67
2022/04/30 07:45:30;;;;;;;9.90;5.13;;;13.50;99.90;;;;;;5094073;28;20178;-67
2022/04/30 07:47:55;;;;;;;8.23;5.33;;;13.50;99.90;;;;;;5094983;28;20181;-67
2022/04/30 07:50:23;;;;;;;7.93;5.43;;;13.40;99.90;;;;;;5099632;28;20158;-70
2022/04/30 07:52:49;;;;;;;6.10;5.03;;;13.40;99.90;;;;;;5103368;28;20238;-67
2022/04/30 07:55:15;;;;;;;6.90;4.77;;;13.50;99.90;;;;;;5094518;28;20155;-68
2022/04/30 07:57:40;;;;;;;9.83;5.97;;;13.50;99.90;;;;;;5093694;28;20635;-68
2022/04/30 08:00:07;;;;;;;9.13;5.70;;;13.40;99.90;;;;;;5091945;28;20174;-67
2022/04/30 08:02:32;;;;;;;8.60;5.40;;;13.40;99.90;;;;;;5092962;28;20182;-68
2022/04/30 08:04:59;;;;;;;10.77;5.43;;;13.50;99.90;;;;;;5093485;28;20174;-68
2022/04/30 08:07:24;;;;;;;12.33;6.33;;;13.60;99.90;;;;;;5093163;28;20162;-67
2022/04/30 08:09:50;;;;;;;7.20;5.20;;;13.50;99.90;;;;;;5093424;28;20159;-67
2022/04/30 08:12:18;;;;;;;7.93;5.23;;;13.60;99.90;;;;;;5093176;28;20213;-67
2022/04/30 08:14:44;;;;;;;7.00;5.17;;;13.70;99.90;;;;;;5093558;28;20158;-67
2022/04/30 08:17:11;;;;;;;13.53;5.10;;;13.90;99.90;;;;;;5093316;28;20250;-69
2022/04/30 08:19:37;;;;;;;9.73;4.90;;;13.90;99.90;;;;;;5092893;28;20496;-67
2022/04/30 08:22:03;;;;;;;11.17;5.87;;;13.90;99.90;;;;;;5093575;28;20159;-67
2022/04/30 08:24:28;;;;;;;6.80;4.90;;;14.00;99.90;;;;;;5092957;28;20208;-68
2022/04/30 08:26:56;;;;;;;7.47;4.80;;;14.00;99.90;;;;;;5092964;28;20193;-69
2022/04/30 08:29:22;;;;;;;8.13;5.03;;;14.00;99.90;;;;;;5093773;28;20223;-68
2022/04/30 08:31:48;;;;;;;11.30;4.80;;;14.10;99.90;;;;;;5092210;28;20592;-68
2022/04/30 08:34:13;;;;;;;8.37;4.60;;;14.10;99.90;;;;;;5094411;28;20174;-69
2022/04/30 08:36:39;;;;;;;9.23;4.43;;;14.40;99.90;;;;;;5097864;28;20503;-69
2022/04/30 08:39:05;;;;;;;8.30;5.03;;;14.60;99.90;;;;;;5097046;28;20198;-67
2022/04/30 08:41:30;;;;;;;12.13;5.83;;;14.70;99.90;;;;;;5097864;28;20204;-69
2022/04/30 08:43:56;;;;;;;10.10;5.03;;;14.90;99.90;;;;;;5096917;28;20167;-69
2022/04/30 08:46:21;;;;;;;8.70;4.30;;;14.90;99.00;;;;;;5096344;28;20206;-69
2022/04/30 08:48:48;;;;;;;5.60;4.37;;;15.00;98.50;;;;;;5096854;28;20163;-68
2022/04/30 08:51:16;;;;;;;8.83;4.77;;;15.00;98.90;;;;;;5096798;28;20193;-68
2022/04/30 08:53:42;;;;;;;8.57;4.77;;;15.20;98.70;;;;;;5095820;28;20242;-69
2022/04/30 08:56:08;;;;;;;6.10;4.80;;;15.50;97.70;;;;;;5096912;28;20564;-68
2022/04/30 08:58:34;;;;;;;7.80;4.87;;;15.30;96.20;;;;;;5096977;28;20159;-68
2022/04/30 09:01:02;;;;;;;5.70;4.70;;;15.40;96.90;;;;;;5097285;28;20171;-68
2022/04/30 09:03:36;;;;;;;7.73;4.73;;;15.80;96.00;;;;;;5096265;28;20163;-69
2022/04/30 09:06:03;;;;;;;9.03;5.37;;;16.00;95.30;;;;;;5096856;28;20250;-68
2022/04/30 09:08:29;;;;;;;7.53;5.00;;;15.70;94.60;;;;;;5097699;28;20163;-69
2022/04/30 09:11:07;;;;;;;5.57;4.50;;;16.20;94.70;;;;;;5097614;28;20167;-68
2022/04/30 09:13:42;;;;;;;12.40;5.33;;;16.30;93.50;;;;;;5096948;28;20198;-68
2022/04/30 09:16:23;;;;;;;7.93;4.90;;;16.00;92.70;;;;;;5095995;28;20211;-69
2022/04/30 09:18:50;;;;;;;6.13;4.75;;;16.40;93.60;;;;;;5096493;28;20594;-68
2022/04/30 09:21:17;;;;;;;5.10;4.43;;;16.40;92.10;;;;;;5097372;28;20179;-68
2022/04/30 09:23:44;;;;;;;7.72;4.95;;;16.50;91.50;;;;;;5098331;28;20583;-67
2022/04/30 09:26:10;;;;;;;7.17;4.73;;;16.60;90.70;;;;;;5098057;28;20204;-67
2022/04/30 09:28:38;;;;;;;7.50;5.10;;;16.30;90.30;;;;;;5097636;28;20167;-67
2022/04/30 09:31:13;;;;;;;5.47;4.10;;;16.30;90.90;;;;;;5098023;28;20227;-67
2022/04/30 09:33:54;;;;;;;8.37;5.40;;;16.70;91.10;;;;;;5096587;28;20544;-69
2022/04/30 09:39:13;;;;;;;9.27;4.55;;;16.90;90.40;;;;;;5096942;28;20720;-67
2022/04/30 09:41:39;;;;;;;6.47;4.93;;;16.90;89.20;;;;;;5097060;28;20621;-69
2022/04/30 09:44:06;;;;;;;8.98;5.03;;;16.90;88.00;;;;;;5097112;28;20163;-69
2022/04/30 09:46:37;;;;;;;6.95;4.65;;;16.80;86.10;;;;;;5095942;28;20198;-68
2022/04/30 09:54:38;;;;;;;8.27;4.90;;;17.10;83.70;;;;;;5095562;28;20560;-69
2022/04/30 09:57:07;;;;;;;6.80;5.27;;;17.20;84.00;;;;;;5095316;28;20587;-69
2022/04/30 09:59:34;;;;;;;9.55;5.30;;;17.30;83.40;;;;;;5095963;28;20163;-68
2022/04/30 10:02:03;;;;;;;7.13;4.47;;;17.60;81.90;;;;;;5094773;28;20171;-68
2022/04/30 10:04:30;;;;;;;10.15;4.70;;;17.80;81.40;;;;;;5096903;28;20175;-68
2022/04/30 10:06:59;;;;;;;10.95;5.55;;;18.00;79.10;;;;;;5096198;28;20171;-70
2022/04/30 10:09:30;;;;;;;9.10;5.32;;;18.10;77.50;;;;;;5095577;28;20166;-69
2022/04/30 10:12:22;;;;;;;7.50;5.13;;;18.20;75.90;;;;;;5094947;28;20217;-68
2022/04/30 10:14:53;;;;;;;7.30;4.97;;;18.20;75.70;;;;;;5095280;28;20167;-68
2022/04/30 10:17:23;;;;;;;11.52;5.43;;;18.20;73.80;;;;;;5095033;28;20603;-68
2022/04/30 10:20:18;;;;;;;8.05;5.03;;;18.50;73.10;;;;;;5094762;28;20158;-69
2022/04/30 10:22:54;;;;;;;8.85;4.88;;;18.70;70.90;;;;;;5095321;28;20167;-68
2022/04/30 10:25:43;;;;;;;8.73;4.97;;;18.70;70.00;;;;;;5094959;28;20163;-69
2022/04/30 10:28:14;;;;;;;11.82;5.40;;;18.90;70.20;;;;;;5095242;28;20496;-69
2022/04/30 10:30:41;;;;;;;7.78;5.45;;;18.90;68.70;;;;;;5094213;28;20167;-68
2022/04/30 10:33:08;;;;;;;8.68;5.00;;;18.90;68.70;;;;;;5093297;28;20234;-69
2022/04/30 10:35:36;;;;;;;7.22;5.03;;;19.00;68.40;;;;;;5095109;28;20183;-69
2022/04/30 10:38:11;;;;;;;7.13;5.18;;;19.20;67.90;;;;;;5094911;28;20182;-69
2022/04/30 10:40:38;;;;;;;7.82;5.20;;;19.40;67.70;;;;;;5094424;28;20593;-69
2022/04/30 10:43:17;;;;;;;7.63;4.50;;;18.90;67.60;;;;;;5095562;28;20162;-69
2022/04/30 10:45:43;;;;;;;6.15;4.75;;;19.00;67.80;;;;;;5094348;28;20158;-69
2022/04/30 10:48:09;;;;;;;8.85;5.03;;;18.70;67.40;;;;;;5094668;28;20254;-68
2022/04/30 10:50:35;;;;;;;8.45;4.97;;;18.90;68.90;;;;;;5095604;28;20166;-70
2022/04/30 10:53:01;;;;;;;9.23;5.40;;;18.90;67.70;;;;;;5096033;28;20226;-68
2022/04/30 10:55:27;;;;;;;8.63;5.55;;;18.80;67.60;;;;;;5094781;28;20163;-70
2022/04/30 10:57:53;;;;;;;8.07;5.43;;;18.70;67.10;;;;;;5093417;28;20163;-69
2022/04/30 11:00:21;;;;;;;9.35;5.40;;;18.90;66.20;;;;;;5094586;28;20511;-69
2022/04/30 11:02:47;;;;;;;8.75;5.88;;;19.00;65.40;;;;;;5094074;28;20158;-68
2022/04/30 11:05:23;;;;;;;6.93;5.25;;;18.70;65.00;;;;;;5094032;28;20556;-69
2022/04/30 11:07:49;;;;;;;8.82;5.25;;;18.90;65.70;;;;;;5092974;28;20589;-69
2022/04/30 11:10:15;;;;;;;9.13;4.72;;;19.00;65.10;;;;;;5094600;28;20163;-69
2022/04/30 11:12:41;;;;;;;11.10;5.13;;;18.90;65.90;;;;;;5093932;28;20195;-72
2022/04/30 11:15:08;;;;;;;7.45;5.38;;;19.30;64.10;;;;;;5094461;28;20170;-69
2022/04/30 11:17:48;;;;;;;7.40;5.32;;;19.60;64.30;;;;;;5094734;28;20257;-68
2022/04/30 11:20:24;;;;;;;7.32;5.07;;;19.80;61.40;;;;;;5094915;28;20167;-70
2022/04/30 11:22:57;;;;;;;8.73;5.38;;;20.10;61.50;;;;;;5096617;28;20590;-68
2022/04/30 11:25:36;;;;;;;9.25;5.53;;;20.70;59.30;;;;;;5096733;28;20226;-71
2022/04/30 11:28:09;;;;;;;6.63;5.13;;;20.90;58.60;;;;;;5094585;28;20165;-69
2022/04/30 11:30:40;;;;;;;7.43;5.07;;;20.80;57.90;;;;;;5095989;28;20174;-68
2022/04/30 11:33:07;;;;;;;7.35;5.47;;;20.80;57.60;;;;;;5093386;28;20234;-69
2022/04/30 11:35:33;;;;;;;7.00;5.40;;;20.30;57.20;;;;;;5093928;28;20212;-68
2022/04/30 11:37:58;;;;;;;7.22;5.40;;;20.50;57.80;;;;;;5093562;28;20162;-69
2022/04/30 11:40:25;;;;;;;6.20;4.68;;;20.50;57.10;;;;;;5093573;28;20167;-68
2022/04/30 11:43:02;;;;;;;9.80;5.35;;;20.00;57.40;;;;;;5094274;28;20182;-69
2022/04/30 11:45:31;;;;;;;12.23;6.00;;;20.00;58.00;;;;;;5093617;28;20161;-69
2022/04/30 11:48:03;;;;;;;11.45;5.20;;;20.20;57.60;;;;;;5093952;28;20155;-70
2022/04/30 11:50:29;;;;;;;8.75;5.47;;;20.20;57.60;;;;;;5095293;28;20163;-67
2022/04/30 11:52:55;;;;;;;8.32;5.75;;;20.10;57.90;;;;;;5094180;28;20234;-69
2022/04/30 11:55:21;;;;;;;9.35;5.10;;;20.00;57.60;;;;;;5095584;28;20491;-68
2022/04/30 11:57:48;;;;;;;8.75;6.53;;;20.00;57.30;;;;;;5093205;28;20174;-69
2022/04/30 12:00:16;;;;;;;7.63;5.75;;;20.00;57.40;;;;;;5117980;28;20166;-70
2022/04/30 12:02:44;;;;;;;7.57;5.30;;;20.00;57.20;;;;;;5114776;28;20186;-70
2022/04/30 12:05:10;;;;;;;11.20;7.97;;;19.90;56.50;;;;;;5115248;28;20170;-69
2022/04/30 12:07:41;;;;;;;7.13;4.68;;;20.00;56.80;;;;;;5114540;28;20443;-69
2022/04/30 12:10:18;;;;;;;7.75;4.90;;;20.10;55.70;;;;;;5116861;28;20185;-70
2022/04/30 12:12:43;;;;;;;8.48;4.60;;;20.00;55.50;;;;;;5102719;28;20305;-69
2022/04/30 12:15:38;;;;;;;6.63;5.13;;;20.20;55.20;;;;;;5097342;28;20311;-70
2022/04/30 12:27:03;;;;;;;6.10;4.65;;;19.90;55.40;;;;;;5117871;28;20200;-69
2022/04/30 12:29:30;;;;;;;12.00;4.88;;;20.40;55.00;;;;;;5118097;28;20162;-71
2022/04/30 12:31:57;;;;;;;6.30;4.70;;;20.30;54.10;;;;;;5118208;28;20174;-69
2022/04/30 12:34:27;;;;;;;6.47;4.82;;;20.20;53.60;;;;;;5118138;28;20158;-68
2022/04/30 12:37:00;;;;;;;11.63;5.13;;;20.00;54.00;;;;;;5117694;27;20162;-69
2022/04/30 12:39:27;;;;;;;9.15;5.15;;;19.90;53.50;;;;;;5118142;28;20177;-69
2022/04/30 12:42:00;;;;;;;8.02;5.00;;;20.30;54.00;;;;;;5117982;28;20154;-70
2022/04/30 12:44:27;;;;;;;5.78;4.65;;;20.70;52.80;;;;;;5117521;28;20166;-68
2022/04/30 12:46:53;;;;;;;7.57;4.70;;;20.80;52.70;;;;;;5117589;28;20162;-68
2022/04/30 12:49:19;;;;;;;6.95;4.72;;;20.90;53.00;;;;;;5117715;28;20581;-67
2022/04/30 12:51:46;;;;;;;6.70;4.97;;;20.90;53.50;;;;;;5117334;28;20312;-67
2022/04/30 12:54:13;;;;;;;7.53;4.90;;;20.70;54.10;;;;;;5121660;28;20166;-69
2022/04/30 12:56:46;;;;;;;7.15;4.10;;;20.70;54.80;;;;;;5115670;28;20265;-69
2022/04/30 12:59:13;;;;;;;7.10;4.47;;;20.60;55.10;;;;;;5116852;28;20562;-69
2022/04/30 13:01:40;;;;;;;7.57;4.57;;;20.40;55.30;;;;;;5117008;28;20535;-69
2022/04/30 13:04:07;;;;;;;7.18;4.28;;;20.10;55.70;;;;;;5117492;27;20159;-69
2022/04/30 13:06:34;;;;;;;6.47;5.22;;;20.50;54.90;;;;;;5116463;28;20189;-69
2022/04/30 13:14:39;;;;;;;5.75;3.92;;;20.10;54.70;;;;;;5060889;28;20592;-69
2022/04/30 13:17:04;;;;;;;7.05;4.90;;;19.90;53.90;;;;;;5116649;28;20169;-70
2022/04/30 13:19:31;;;;;;;4.80;3.90;;;19.50;53.70;;;;;;5116355;28;20168;-70
2022/04/30 13:21:57;;;;;;;5.65;3.60;;;19.60;54.30;;;;;;5116745;28;20294;-70
2022/04/30 13:24:23;;;;;;;5.00;3.80;;;19.70;54.30;;;;;;5115531;28;20663;-68
2022/04/30 13:26:48;;;;;;;6.43;3.95;;;19.70;53.90;;;;;;5116531;28;20185;-70
2022/04/30 13:29:14;;;;;;;5.40;3.45;;;19.50;53.80;;;;;;5116594;28;20497;-69
2022/04/30 13:31:41;;;;;;;5.25;4.07;;;19.90;54.90;;;;;;5117011;28;20214;-70
2022/04/30 13:34:08;;;;;;;4.13;3.72;;;20.50;53.90;;;;;;5115649;28;20246;-69
2022/04/30 13:36:39;;;;;;;6.43;4.15;;;20.50;52.50;;;;;;5116890;28;20158;-69
2022/04/30 13:39:05;;;;;;;4.75;3.88;;;20.60;51.30;;;;;;5116946;28;20482;-70